createdAt,value
2018-08-09T00:00:12.639Z,24.20
2018-08-09T00:02:41.304Z,24.20
2018-08-09T00:05:09.876Z,24.20
2018-08-09T00:07:38.724Z,24.10
2018-08-09T00:10:07.704Z,24.10
2018-08-09T00:12:36.256Z,24.10
2018-08-09T00:15:05.597Z,24.00
2018-08-09T00:17:34.638Z,24.10
2018-08-09T00:20:03.214Z,24.00
2018-08-09T00:22:31.712Z,24.10
2018-08-09T00:25:00.248Z,24.10
2018-08-09T00:27:28.763Z,24.10
2018-08-09T00:29:57.308Z,24.10
2018-08-09T00:32:25.808Z,24.00
2018-08-09T00:34:54.576Z,24.00
2018-08-09T00:37:23.137Z,23.90
2018-08-09T00:39:51.700Z,23.90
2018-08-09T00:42:20.239Z,23.90
2018-08-09T00:44:49.332Z,23.90
2018-08-09T00:47:17.905Z,23.90
2018-08-09T00:49:48.764Z,23.90
2018-08-09T00:52:17.300Z,24.00
2018-08-09T00:54:45.816Z,24.00
2018-08-09T00:57:14.412Z,24.00
2018-08-09T00:59:42.918Z,23.90
2018-08-09T01:02:12.107Z,23.90
2018-08-09T01:04:40.618Z,23.80
2018-08-09T01:07:09.396Z,23.80
2018-08-09T01:09:37.924Z,23.70
2018-08-09T01:12:06.718Z,23.70
2018-08-09T01:14:35.426Z,23.70
2018-08-09T01:17:04.025Z,23.70
2018-08-09T01:19:32.646Z,23.70
2018-08-09T01:22:01.308Z,23.70
2018-08-09T01:24:29.886Z,23.70
2018-08-09T01:26:58.594Z,23.70
2018-08-09T01:29:27.387Z,23.70
2018-08-09T01:31:55.891Z,23.70
2018-08-09T01:34:24.432Z,23.60
2018-08-09T01:36:52.966Z,23.60
2018-08-09T01:39:21.532Z,23.70
2018-08-09T01:42:01.234Z,23.70
2018-08-09T01:44:29.788Z,23.70
2018-08-09T01:46:58.309Z,23.70
2018-08-09T01:49:27.080Z,23.60
2018-08-09T01:51:55.600Z,23.60
2018-08-09T01:54:25.101Z,23.50
2018-08-09T01:56:53.592Z,23.50
2018-08-09T01:59:22.244Z,23.40
2018-08-09T02:01:50.883Z,23.40
2018-08-09T02:04:19.468Z,23.30
2018-08-09T02:06:48.017Z,23.40
2018-08-09T02:09:21.888Z,23.40
2018-08-09T02:11:50.420Z,23.30
2018-08-09T02:14:18.998Z,23.40
2018-08-09T02:16:47.506Z,23.30
2018-08-09T02:19:16.005Z,23.30
2018-08-09T02:21:44.520Z,23.30
2018-08-09T02:24:13.012Z,23.30
2018-08-09T02:26:41.576Z,23.30
2018-08-09T02:29:10.120Z,23.30
2018-08-09T02:31:38.696Z,23.30
2018-08-09T02:34:07.529Z,23.30
2018-08-09T02:36:36.069Z,23.30
2018-08-09T02:39:07.192Z,23.40
2018-08-09T02:41:35.696Z,23.30
2018-08-09T02:44:04.289Z,23.40
2018-08-09T02:46:32.961Z,23.30
2018-08-09T02:49:01.488Z,23.20
2018-08-09T02:51:29.996Z,23.20
2018-08-09T02:53:58.546Z,23.20
2018-08-09T02:56:27.142Z,23.10
2018-08-09T02:58:55.988Z,23.10
2018-08-09T03:01:24.512Z,23.10
2018-08-09T03:03:53.062Z,23.10
2018-08-09T03:06:21.580Z,23.00
2018-08-09T03:08:50.164Z,23.10
2018-08-09T03:11:18.746Z,23.10
2018-08-09T03:13:47.284Z,23.00
2018-08-09T03:16:15.805Z,23.00
2018-08-09T03:18:44.326Z,23.00
2018-08-09T03:21:12.937Z,23.00
2018-08-09T03:23:41.475Z,23.00
2018-08-09T03:26:09.984Z,22.90
2018-08-09T03:28:38.703Z,22.90
2018-08-09T03:31:07.227Z,22.90
2018-08-09T03:33:35.772Z,22.80
2018-08-09T03:36:04.276Z,22.80
2018-08-09T03:38:32.810Z,22.80
2018-08-09T03:41:01.301Z,22.80
2018-08-09T03:43:29.871Z,22.90
2018-08-09T03:45:58.401Z,22.80
2018-08-09T03:48:26.940Z,22.80
2018-08-09T03:50:55.432Z,22.80
2018-08-09T03:53:23.964Z,22.80
2018-08-09T03:55:52.535Z,22.70
2018-08-09T03:58:21.243Z,22.70
2018-08-09T04:00:49.737Z,22.70
2018-08-09T04:03:18.288Z,22.70
2018-08-09T04:05:46.791Z,22.70
2018-08-09T04:08:15.431Z,22.70
2018-08-09T04:10:43.957Z,22.80
2018-08-09T04:13:12.487Z,22.70
2018-08-09T04:15:41.052Z,22.80
2018-08-09T04:18:09.667Z,22.80
2018-08-09T04:20:38.206Z,22.80
2018-08-09T04:23:06.732Z,22.90
2018-08-09T04:25:35.333Z,22.90
2018-08-09T04:28:03.811Z,22.90
2018-08-09T04:30:32.358Z,22.90
2018-08-09T04:33:00.865Z,22.90
2018-08-09T04:35:29.518Z,23.00
2018-08-09T04:37:58.020Z,23.00
2018-08-09T04:40:26.585Z,23.10
2018-08-09T04:42:55.061Z,23.20
2018-08-09T04:45:23.689Z,23.30
2018-08-09T04:47:52.197Z,23.40
2018-08-09T04:50:20.853Z,23.50
2018-08-09T04:52:49.392Z,23.70
2018-08-09T04:55:17.996Z,23.80
2018-08-09T04:57:47.545Z,23.90
2018-08-09T05:00:16.081Z,24.00
2018-08-09T05:02:44.600Z,24.10
2018-08-09T05:05:13.139Z,24.20
2018-08-09T05:07:42.232Z,24.30
2018-08-09T05:10:11.362Z,24.30
2018-08-09T05:12:42.117Z,24.40
2018-08-09T05:15:11.456Z,24.50
2018-08-09T05:17:40.576Z,24.60
2018-08-09T05:20:09.115Z,24.60
2018-08-09T05:22:37.639Z,24.80
2018-08-09T05:25:06.661Z,24.80
2018-08-09T05:27:35.192Z,24.90
2018-08-09T05:30:04.139Z,25.00
2018-08-09T05:32:32.821Z,25.00
2018-08-09T05:35:01.393Z,25.10
2018-08-09T05:37:30.092Z,25.20
2018-08-09T05:39:58.656Z,25.30
2018-08-09T05:42:27.365Z,25.30
2018-08-09T05:44:55.913Z,25.40
2018-08-09T05:47:24.423Z,25.50
2018-08-09T05:49:52.993Z,25.60
2018-08-09T05:52:21.566Z,25.60
2018-08-09T05:54:50.073Z,25.70
2018-08-09T05:57:18.642Z,25.80
2018-08-09T05:59:47.164Z,25.80
2018-08-09T06:02:15.721Z,25.90
2018-08-09T06:04:44.276Z,26.00
2018-08-09T06:07:12.842Z,26.00
2018-08-09T06:09:41.380Z,26.10
2018-08-09T06:12:09.954Z,26.20
2018-08-09T06:14:38.536Z,26.20
2018-08-09T06:17:07.068Z,26.20
2018-08-09T06:19:35.639Z,26.30
2018-08-09T06:22:05.117Z,26.40
2018-08-09T06:24:34.136Z,26.40
2018-08-09T06:27:02.664Z,26.40
2018-08-09T06:29:31.464Z,26.50
2018-08-09T06:32:00.163Z,26.50
2018-08-09T06:34:28.749Z,26.60
2018-08-09T06:36:57.481Z,26.60
2018-08-09T06:39:26.068Z,26.60
2018-08-09T06:41:54.669Z,26.70
2018-08-09T06:44:23.231Z,26.80
2018-08-09T06:46:51.816Z,26.90
2018-08-09T06:49:20.976Z,26.90
2018-08-09T06:51:49.483Z,27.00
2018-08-09T06:54:18.301Z,27.10
2018-08-09T06:56:46.880Z,27.10
2018-08-09T06:59:15.380Z,27.20
2018-08-09T07:01:43.973Z,27.30
2018-08-09T07:04:12.757Z,27.40
2018-08-09T07:06:41.908Z,27.50
2018-08-09T07:09:13.536Z,27.60
2018-08-09T07:11:42.126Z,27.60
2018-08-09T07:14:10.917Z,27.70
2018-08-09T07:16:39.530Z,27.80
2018-08-09T07:19:09.056Z,27.80
2018-08-09T07:21:37.757Z,28.00
2018-08-09T07:24:06.480Z,28.10
2018-08-09T07:26:35.146Z,28.10
2018-08-09T07:29:04.010Z,28.10
2018-08-09T07:31:32.600Z,28.10
2018-08-09T07:34:01.181Z,28.20
2018-08-09T07:36:30.023Z,28.30
2018-08-09T07:38:58.610Z,28.40
2018-08-09T07:41:27.396Z,28.40
2018-08-09T07:43:55.997Z,28.60
2018-08-09T07:46:25.136Z,28.60
2018-08-09T07:48:53.996Z,28.80
2018-08-09T07:51:22.437Z,28.80
2018-08-09T07:53:51.099Z,28.90
2018-08-09T07:56:19.656Z,29.00
2018-08-09T07:58:48.218Z,29.10
2018-08-09T08:01:16.760Z,29.10
2018-08-09T08:03:45.334Z,29.20
2018-08-09T08:06:14.009Z,29.30
2018-08-09T08:08:42.501Z,29.30
2018-08-09T08:11:11.096Z,29.40
2018-08-09T08:13:39.792Z,29.50
2018-08-09T08:16:08.604Z,29.50
2018-08-09T08:18:37.158Z,29.60
2018-08-09T08:21:06.106Z,29.70
2018-08-09T08:23:34.669Z,29.80
2018-08-09T08:26:03.387Z,29.80
2018-08-09T08:28:32.139Z,29.90
2018-08-09T08:31:00.767Z,29.90
2018-08-09T08:33:29.356Z,30.00
2018-08-09T08:35:58.249Z,30.00
2018-08-09T08:38:26.967Z,30.10
2018-08-09T08:40:55.534Z,30.20
2018-08-09T08:43:24.134Z,30.20
2018-08-09T08:45:52.691Z,30.30
2018-08-09T08:48:21.330Z,30.30
2018-08-09T08:50:49.893Z,30.30
2018-08-09T08:53:18.446Z,30.30
2018-08-09T08:55:47.093Z,30.40
2018-08-09T08:58:15.909Z,30.20
2018-08-09T09:00:45.894Z,30.20
2018-08-09T09:03:14.420Z,30.40
2018-08-09T09:05:43.064Z,30.40
2018-08-09T09:08:11.574Z,30.60
2018-08-09T09:10:40.501Z,30.80
2018-08-09T09:13:09.036Z,30.80
2018-08-09T09:15:37.620Z,31.00
2018-08-09T09:18:09.188Z,31.00
2018-08-09T09:20:37.823Z,31.10
2018-08-09T09:23:06.465Z,30.90
2018-08-09T09:25:35.082Z,30.90
2018-08-09T09:28:03.828Z,31.00
2018-08-09T09:30:33.177Z,31.30
2018-08-09T09:33:01.736Z,31.40
2018-08-09T09:35:30.344Z,31.50
2018-08-09T09:37:59.565Z,31.70
2018-08-09T09:40:28.141Z,31.80
2018-08-09T09:42:56.661Z,31.80
2018-08-09T09:45:25.656Z,31.90
2018-08-09T09:47:54.236Z,31.90
2018-08-09T09:50:22.748Z,31.90
2018-08-09T09:52:51.446Z,32.00
2018-08-09T09:55:20.028Z,32.00
2018-08-09T09:57:48.630Z,32.00
2018-08-09T10:00:22.609Z,31.90
2018-08-09T10:02:51.186Z,31.90
2018-08-09T10:05:19.862Z,31.90
2018-08-09T10:07:48.569Z,31.90
2018-08-09T10:10:17.155Z,31.90
2018-08-09T10:12:45.766Z,32.00
2018-08-09T10:15:14.492Z,32.00
2018-08-09T10:17:43.042Z,32.10
2018-08-09T10:20:11.763Z,32.10
2018-08-09T10:22:46.937Z,32.00
2018-08-09T10:25:15.484Z,32.10
2018-08-09T10:27:44.029Z,32.10
2018-08-09T10:30:13.356Z,32.20
2018-08-09T10:32:41.918Z,32.20
2018-08-09T10:35:10.456Z,32.20
2018-08-09T10:37:39.709Z,32.10
2018-08-09T10:40:08.324Z,32.20
2018-08-09T10:42:36.856Z,32.20
2018-08-09T10:45:05.523Z,32.20
2018-08-09T10:47:34.177Z,32.20
2018-08-09T10:50:02.940Z,32.30
2018-08-09T10:52:31.478Z,32.30
2018-08-09T10:55:00.175Z,32.30
2018-08-09T10:57:28.815Z,32.30
2018-08-09T10:59:57.372Z,32.30
2018-08-09T11:02:25.973Z,32.30
2018-08-09T11:04:54.535Z,32.30
2018-08-09T11:07:23.121Z,32.30
2018-08-09T11:09:51.712Z,32.30
2018-08-09T11:12:20.298Z,32.30
2018-08-09T11:14:48.812Z,32.40
2018-08-09T11:17:17.486Z,32.50
2018-08-09T11:19:46.000Z,32.50
2018-08-09T11:22:14.694Z,32.50
2018-08-09T11:24:43.309Z,32.60
2018-08-09T11:27:11.845Z,32.60
2018-08-09T11:29:40.956Z,32.60
2018-08-09T11:32:10.239Z,32.70
2018-08-09T11:34:39.216Z,32.70
2018-08-09T11:37:07.863Z,32.80
2018-08-09T11:39:36.579Z,32.70
2018-08-09T11:42:05.240Z,32.80
2018-08-09T11:44:35.131Z,32.80
2018-08-09T11:47:03.908Z,32.80
2018-08-09T11:49:32.440Z,32.90
2018-08-09T11:52:00.990Z,32.90
2018-08-09T11:54:29.525Z,32.90
2018-08-09T11:56:58.143Z,32.90
2018-08-09T11:59:26.674Z,32.90
2018-08-09T12:01:55.270Z,33.00
2018-08-09T12:04:23.805Z,33.00
2018-08-09T12:06:54.725Z,33.00
2018-08-09T12:09:23.264Z,33.10
2018-08-09T12:11:51.864Z,33.10
2018-08-09T12:14:20.364Z,33.20
2018-08-09T12:16:48.997Z,33.20
2018-08-09T12:19:17.541Z,33.20
2018-08-09T12:21:46.184Z,33.20
2018-08-09T12:24:14.895Z,33.20
2018-08-09T12:26:43.526Z,33.20
2018-08-09T12:29:12.306Z,33.30
2018-08-09T12:31:40.972Z,33.20
2018-08-09T12:34:09.596Z,33.30
2018-08-09T12:36:38.207Z,33.40
2018-08-09T12:39:10.000Z,33.40
2018-08-09T12:41:38.613Z,33.30
2018-08-09T12:44:07.431Z,33.40
2018-08-09T12:46:36.034Z,33.40
2018-08-09T12:49:04.643Z,33.40
2018-08-09T12:51:33.184Z,33.40
2018-08-09T12:54:02.015Z,33.40
2018-08-09T12:56:30.883Z,33.40
2018-08-09T12:58:59.483Z,33.30
2018-08-09T13:01:28.149Z,33.40
2018-08-09T13:03:57.233Z,33.60
2018-08-09T13:06:25.869Z,33.80
2018-08-09T13:08:54.476Z,34.10
2018-08-09T13:11:23.580Z,34.50
2018-08-09T13:13:52.280Z,35.00
2018-08-09T13:16:20.869Z,35.50
2018-08-09T13:18:49.549Z,36.00
2018-08-09T13:21:18.559Z,37.00
2018-08-09T13:23:48.181Z,37.70
2018-08-09T13:26:16.936Z,38.30
2018-08-09T13:28:45.504Z,38.80
2018-08-09T13:31:14.322Z,39.30
2018-08-09T13:33:43.007Z,39.60
2018-08-09T13:36:11.608Z,39.70
2018-08-09T13:38:40.176Z,40.10
2018-08-09T13:41:08.758Z,40.30
2018-08-09T13:43:37.394Z,40.10
2018-08-09T13:46:06.596Z,39.60
2018-08-09T13:48:35.313Z,39.30
2018-08-09T13:51:04.631Z,39.60
2018-08-09T13:53:33.251Z,40.00
2018-08-09T13:56:01.803Z,39.90
2018-08-09T13:58:30.629Z,40.00
2018-08-09T14:00:59.242Z,39.80
2018-08-09T14:03:27.839Z,40.20
2018-08-09T14:05:56.725Z,40.40
2018-08-09T14:08:25.346Z,40.90
2018-08-09T14:10:53.860Z,41.70
2018-08-09T14:13:22.428Z,42.00
2018-08-09T14:15:50.946Z,42.00
2018-08-09T14:18:19.569Z,41.50
2018-08-09T14:20:48.135Z,40.50
2018-08-09T14:23:16.806Z,39.70
2018-08-09T14:25:45.373Z,39.00
2018-08-09T14:28:14.309Z,38.30
2018-08-09T14:30:42.863Z,37.70
2018-08-09T14:33:11.452Z,37.10
2018-08-09T14:35:40.159Z,36.60
2018-08-09T14:38:08.919Z,36.20
2018-08-09T14:40:38.129Z,36.00
2018-08-09T14:43:06.766Z,35.80
2018-08-09T14:45:35.324Z,35.70
2018-08-09T14:48:04.181Z,35.70
2018-08-09T14:50:32.750Z,35.60
2018-08-09T14:53:01.480Z,35.50
2018-08-09T14:55:30.069Z,35.40
2018-08-09T14:57:58.732Z,35.30
2018-08-09T15:00:27.304Z,35.30
2018-08-09T15:02:55.861Z,35.20
2018-08-09T15:05:24.684Z,35.00
2018-08-09T15:07:53.575Z,34.90
2018-08-09T15:10:22.135Z,35.00
2018-08-09T15:12:50.714Z,34.90
2018-08-09T15:15:19.281Z,34.80
2018-08-09T15:17:47.867Z,34.60
2018-08-09T15:20:16.400Z,35.10
2018-08-09T15:22:46.500Z,35.80
2018-08-09T15:25:15.201Z,36.50
2018-08-09T15:27:43.936Z,37.80
2018-08-09T15:30:19.793Z,38.10
2018-08-09T15:32:48.964Z,37.80
2018-08-09T15:35:18.911Z,37.10
2018-08-09T15:37:47.879Z,38.10
2018-08-09T15:40:16.461Z,37.50
2018-08-09T15:42:45.145Z,39.00
2018-08-09T15:45:15.325Z,39.40
2018-08-09T15:47:44.167Z,41.50
2018-08-09T15:50:16.657Z,42.30
2018-08-09T15:52:45.305Z,42.70
2018-08-09T15:55:15.291Z,43.00
2018-08-09T15:57:44.445Z,41.40
2018-08-09T16:00:18.390Z,42.50
2018-08-09T16:02:47.608Z,43.50
2018-08-09T16:05:16.246Z,44.40
2018-08-09T16:07:44.824Z,45.10
2018-08-09T16:10:15.341Z,45.60
2018-08-09T16:12:46.297Z,42.90
2018-08-09T16:15:16.841Z,43.70
2018-08-09T16:17:46.522Z,44.30
2018-08-09T16:20:15.156Z,44.70
2018-08-09T16:22:44.708Z,43.60
2018-08-09T16:25:17.640Z,42.20
2018-08-09T16:27:46.647Z,41.00
2018-08-09T16:30:19.556Z,40.10
2018-08-09T16:32:49.582Z,39.30
2018-08-09T16:35:18.875Z,38.60
2018-08-09T16:37:47.765Z,38.00
2018-08-09T16:40:24.944Z,37.50
2018-08-09T16:42:53.591Z,37.10
2018-08-09T16:45:23.305Z,36.60
2018-08-09T16:47:53.513Z,36.30
2018-08-09T16:50:23.726Z,36.00
2018-08-09T16:52:53.495Z,35.80
2018-08-09T16:55:23.632Z,35.60
2018-08-09T16:57:52.210Z,35.30
2018-08-09T17:00:22.252Z,35.20
2018-08-09T17:02:53.176Z,35.10
2018-08-09T17:05:23.158Z,35.00
2018-08-09T17:07:51.861Z,34.80
2018-08-09T17:10:22.090Z,34.70
2018-08-09T17:12:50.993Z,34.60
2018-08-09T17:15:21.957Z,34.50
2018-08-09T17:17:50.715Z,34.40
2018-08-09T17:20:22.062Z,34.30
2018-08-09T17:22:50.717Z,34.20
2018-08-09T17:25:19.323Z,34.20
2018-08-09T17:27:48.579Z,34.20
2018-08-09T17:30:19.032Z,34.20
2018-08-09T17:32:47.869Z,34.10
2018-08-09T17:35:17.513Z,34.00
2018-08-09T17:37:46.161Z,34.00
2018-08-09T17:40:19.043Z,33.90
2018-08-09T17:42:49.328Z,33.80
2018-08-09T17:45:18.853Z,33.70
2018-08-09T17:47:50.445Z,33.60
2018-08-09T17:50:19.268Z,33.60
2018-08-09T17:52:48.088Z,33.50
2018-08-09T17:55:17.667Z,33.30
2018-08-09T17:57:47.074Z,33.30
2018-08-09T18:00:22.661Z,33.20
2018-08-09T18:02:51.858Z,33.10
2018-08-09T18:05:21.286Z,33.00
2018-08-09T18:07:50.282Z,32.90
2018-08-09T18:10:25.130Z,32.90
2018-08-09T18:12:54.162Z,32.80
2018-08-09T18:15:23.760Z,32.60
2018-08-09T18:17:52.797Z,32.60
2018-08-09T18:20:24.537Z,32.50
2018-08-09T18:22:53.182Z,32.40
2018-08-09T18:25:21.806Z,32.40
2018-08-09T18:27:50.359Z,32.30
2018-08-09T18:30:20.304Z,32.20
2018-08-09T18:32:49.121Z,32.10
2018-08-09T18:35:18.621Z,32.10
2018-08-09T18:37:47.288Z,32.00
2018-08-09T18:40:19.460Z,32.00
2018-08-09T18:42:48.095Z,31.90
2018-08-09T18:45:17.025Z,31.80
2018-08-09T18:47:45.984Z,31.70
2018-08-09T18:50:17.403Z,31.60
2018-08-09T18:52:46.157Z,31.60
2018-08-09T18:55:16.937Z,31.50
2018-08-09T18:57:45.522Z,31.40
2018-08-09T19:00:16.957Z,31.40
2018-08-09T19:02:46.134Z,31.30
2018-08-09T19:05:15.221Z,31.30
2018-08-09T19:07:46.174Z,31.20
2018-08-09T19:10:16.584Z,31.10
2018-08-09T19:12:45.438Z,31.00
2018-08-09T19:15:14.448Z,30.90
2018-08-09T19:17:43.582Z,30.80
2018-08-09T19:20:22.348Z,30.80
2018-08-09T19:22:51.551Z,30.70
2018-08-09T19:25:21.161Z,30.70
2018-08-09T19:27:50.407Z,30.70
2018-08-09T19:30:21.041Z,30.60
2018-08-09T19:32:49.809Z,30.70
2018-08-09T19:35:19.345Z,30.60
2018-08-09T19:37:47.998Z,30.60
2018-08-09T19:40:19.687Z,30.50
2018-08-09T19:42:48.393Z,30.50
2018-08-09T19:45:21.033Z,30.30
2018-08-09T19:47:49.933Z,30.30
2018-08-09T19:50:20.179Z,30.20
2018-08-09T19:52:48.785Z,30.20
2018-08-09T19:55:19.082Z,30.10
2018-08-09T19:57:48.725Z,30.00
2018-08-09T20:00:25.856Z,29.80
2018-08-09T20:02:55.078Z,29.80
2018-08-09T20:05:24.221Z,29.70
2018-08-09T20:07:52.947Z,29.60
2018-08-09T20:10:21.593Z,29.50
2018-08-09T20:12:50.513Z,29.40
2018-08-09T20:15:20.587Z,29.30
2018-08-09T20:17:49.493Z,29.20
2018-08-09T20:20:19.862Z,29.10
2018-08-09T20:22:48.563Z,29.10
2018-08-09T20:25:17.156Z,29.00
2018-08-09T20:27:46.757Z,28.90
2018-08-09T20:30:16.752Z,28.90
2018-08-09T20:32:46.095Z,28.90
2018-08-09T20:35:16.380Z,28.80
2018-08-09T20:37:45.991Z,28.80
2018-08-09T20:40:15.453Z,28.80
2018-08-09T20:42:44.732Z,28.70
2018-08-09T20:45:14.901Z,28.70
2018-08-09T20:47:43.538Z,28.70
2018-08-09T20:50:15.073Z,28.70
2018-08-09T20:52:44.657Z,28.60
2018-08-09T20:55:13.483Z,28.60
2018-08-09T20:57:43.078Z,28.50
2018-08-09T21:00:17.538Z,28.50
2018-08-09T21:02:47.767Z,28.50
2018-08-09T21:05:18.600Z,28.40
2018-08-09T21:07:47.227Z,28.40
2018-08-09T21:10:15.936Z,28.40
2018-08-09T21:12:44.597Z,28.30
2018-08-09T21:15:13.230Z,28.30
2018-08-09T21:17:41.895Z,28.20
2018-08-09T21:20:10.997Z,28.20
2018-08-09T21:22:39.573Z,28.20
2018-08-09T21:25:09.198Z,28.10
2018-08-09T21:27:37.979Z,28.00
2018-08-09T21:30:08.247Z,28.00
2018-08-09T21:32:37.303Z,28.00
2018-08-09T21:35:06.438Z,27.90
2018-08-09T21:37:34.993Z,27.80
2018-08-09T21:40:03.593Z,27.80
2018-08-09T21:42:32.848Z,27.70
2018-08-09T21:45:01.457Z,27.60
2018-08-09T21:47:30.014Z,27.50
2018-08-09T21:49:59.397Z,27.50
2018-08-09T21:52:28.023Z,27.50
2018-08-09T21:54:56.600Z,27.40
2018-08-09T21:57:25.360Z,27.30
2018-08-09T21:59:54.061Z,27.30
2018-08-09T22:02:22.673Z,27.20
2018-08-09T22:04:56.624Z,27.20
2018-08-09T22:07:30.496Z,27.20
2018-08-09T22:10:05.001Z,27.10
2018-08-09T22:12:38.733Z,27.10
2018-08-09T22:16:14.125Z,27.10
2018-08-09T22:18:48.150Z,27.10
2018-08-09T22:21:22.160Z,26.90
2018-08-09T22:23:52.097Z,27.00
2018-08-09T22:26:20.734Z,26.90
2018-08-09T22:28:49.344Z,26.90
2018-08-09T22:31:18.009Z,26.90
2018-08-09T22:33:46.924Z,26.90
2018-08-09T22:36:15.622Z,26.90
2018-08-09T22:38:44.163Z,26.80
2018-08-09T22:41:12.752Z,26.80
2018-08-09T22:43:41.360Z,26.70
2018-08-09T22:46:09.949Z,26.70
2018-08-09T22:48:38.531Z,26.70
2018-08-09T22:51:07.440Z,26.60
2018-08-09T22:53:36.016Z,26.60
2018-08-09T22:56:04.601Z,26.50
2018-08-09T22:58:33.210Z,26.50
2018-08-09T23:01:01.757Z,26.40
2018-08-09T23:03:30.495Z,26.40
2018-08-09T23:05:59.192Z,26.30
2018-08-09T23:08:28.248Z,26.30
2018-08-09T23:10:56.822Z,26.30
2018-08-09T23:13:26.255Z,26.30
2018-08-09T23:15:54.791Z,26.30
2018-08-09T23:18:23.399Z,26.30
2018-08-09T23:20:51.940Z,26.30
2018-08-09T23:23:20.530Z,26.20
2018-08-09T23:25:49.075Z,26.30
2018-08-09T23:28:17.682Z,26.20
2018-08-09T23:30:46.605Z,26.20
2018-08-09T23:33:16.204Z,26.20
2018-08-09T23:35:44.690Z,26.10
2018-08-09T23:38:13.217Z,26.00
2018-08-09T23:40:41.780Z,26.00
2018-08-09T23:43:10.388Z,26.00
2018-08-09T23:45:38.929Z,25.90
2018-08-09T23:48:07.582Z,25.90
2018-08-09T23:50:36.073Z,25.90
2018-08-09T23:53:04.864Z,25.90
2018-08-09T23:55:33.427Z,25.90
2018-08-09T23:58:01.921Z,25.90
